sensor_id;sensor_type;location;lat;lon;timestamp;temperature;humidity
22813;DHT22;11573;51.334;3.244;2023-04-19T00:00:03;10.00;99.90
22813;DHT22;11573;51.334;3.244;2023-04-19T00:02:34;10.00;99.90
22813;DHT22;11573;51.334;3.244;2023-04-19T00:05:02;10.00;99.90
22813;DHT22;11573;51.334;3.244;2023-04-19T00:07:29;10.00;99.90
22813;DHT22;11573;51.334;3.244;2023-04-19T00:09:56;9.90;99.90
22813;DHT22;11573;51.334;3.244;2023-04-19T00:12:23;9.90;99.90
22813;DHT22;11573;51.334;3.244;2023-04-19T00:14:50;9.90;99.90
22813;DHT22;11573;51.334;3.244;2023-04-19T00:17:17;9.90;99.90
22813;DHT22;11573;51.334;3.244;2023-04-19T00:19:45;9.80;99.90
22813;DHT22;11573;51.334;3.244;2023-04-19T00:22:12;9.80;99.90
22813;DHT22;11573;51.334;3.244;2023-04-19T00:24:38;9.80;99.90
22813;DHT22;11573;51.334;3.244;2023-04-19T00:27:06;9.80;99.90
22813;DHT22;11573;51.334;3.244;2023-04-19T00:29:32;9.80;99.90
22813;DHT22;11573;51.334;3.244;2023-04-19T00:31:59;9.80;99.90
22813;DHT22;11573;51.334;3.244;2023-04-19T00:34:27;9.80;99.90
22813;DHT22;11573;51.334;3.244;2023-04-19T00:36:55;9.70;99.90
22813;DHT22;11573;51.334;3.244;2023-04-19T00:39:22;9.70;99.90
22813;DHT22;11573;51.334;3.244;2023-04-19T00:41:49;9.70;99.90
22813;DHT22;11573;51.334;3.244;2023-04-19T00:44:17;9.70;99.90
22813;DHT22;11573;51.334;3.244;2023-04-19T00:46:44;9.60;99.90
22813;DHT22;11573;51.334;3.244;2023-04-19T00:49:12;9.60;99.90
22813;DHT22;11573;51.334;3.244;2023-04-19T00:51:39;9.60;99.90
22813;DHT22;11573;51.334;3.244;2023-04-19T00:54:06;9.50;99.90
22813;DHT22;11573;51.334;3.244;2023-04-19T00:56:34;9.50;99.90
22813;DHT22;11573;51.334;3.244;2023-04-19T00:59:01;9.50;99.90
22813;DHT22;11573;51.334;3.244;2023-04-19T01:01:30;9.50;99.90
22813;DHT22;11573;51.334;3.244;2023-04-19T01:03:57;9.40;99.90
22813;DHT22;11573;51.334;3.244;2023-04-19T01:06:25;9.40;99.90
22813;DHT22;11573;51.334;3.244;2023-04-19T01:08:53;9.40;99.90
22813;DHT22;11573;51.334;3.244;2023-04-19T01:11:24;9.40;99.90
22813;DHT22;11573;51.334;3.244;2023-04-19T01:13:52;9.30;99.90
22813;DHT22;11573;51.334;3.244;2023-04-19T01:16:19;9.20;99.90
22813;DHT22;11573;51.334;3.244;2023-04-19T01:18:48;9.20;99.90
22813;DHT22;11573;51.334;3.244;2023-04-19T01:21:15;9.20;99.90
22813;DHT22;11573;51.334;3.244;2023-04-19T01:23:43;9.20;99.90
22813;DHT22;11573;51.334;3.244;2023-04-19T01:26:10;9.10;99.90
22813;DHT22;11573;51.334;3.244;2023-04-19T01:28:37;9.10;99.90
22813;DHT22;11573;51.334;3.244;2023-04-19T01:31:04;9.10;99.90
22813;DHT22;11573;51.334;3.244;2023-04-19T01:33:31;9.00;99.90
22813;DHT22;11573;51.334;3.244;2023-04-19T01:35:59;9.00;99.90
22813;DHT22;11573;51.334;3.244;2023-04-19T01:38:25;9.00;99.90
22813;DHT22;11573;51.334;3.244;2023-04-19T01:40:52;8.90;99.90
22813;DHT22;11573;51.334;3.244;2023-04-19T01:43:23;8.90;99.90
22813;DHT22;11573;51.334;3.244;2023-04-19T01:45:50;8.90;99.90
22813;DHT22;11573;51.334;3.244;2023-04-19T01:48:18;8.90;99.90
22813;DHT22;11573;51.334;3.244;2023-04-19T01:50:45;8.90;99.90
22813;DHT22;11573;51.334;3.244;2023-04-19T01:53:12;8.90;99.90
22813;DHT22;11573;51.334;3.244;2023-04-19T01:55:39;8.90;99.90
22813;DHT22;11573;51.334;3.244;2023-04-19T01:58:06;8.80;99.90
22813;DHT22;11573;51.334;3.244;2023-04-19T02:00:33;8.80;99.90
22813;DHT22;11573;51.334;3.244;2023-04-19T02:03:03;8.80;99.90
22813;DHT22;11573;51.334;3.244;2023-04-19T02:05:30;8.80;99.90
22813;DHT22;11573;51.334;3.244;2023-04-19T02:07:58;8.80;99.90
22813;DHT22;11573;51.334;3.244;2023-04-19T02:10:29;8.80;99.90
22813;DHT22;11573;51.334;3.244;2023-04-19T02:12:56;8.80;99.90
22813;DHT22;11573;51.334;3.244;2023-04-19T02:15:23;8.80;99.90
22813;DHT22;11573;51.334;3.244;2023-04-19T02:17:50;8.70;99.90
22813;DHT22;11573;51.334;3.244;2023-04-19T02:20:18;8.70;99.90
22813;DHT22;11573;51.334;3.244;2023-04-19T02:22:45;8.70;99.90
22813;DHT22;11573;51.334;3.244;2023-04-19T02:25:13;8.70;99.90
22813;DHT22;11573;51.334;3.244;2023-04-19T02:27:42;8.70;99.90
22813;DHT22;11573;51.334;3.244;2023-04-19T02:30:09;8.70;99.90
22813;DHT22;11573;51.334;3.244;2023-04-19T02:32:37;8.70;99.90
22813;DHT22;11573;51.334;3.244;2023-04-19T02:35:05;8.70;99.90
22813;DHT22;11573;51.334;3.244;2023-04-19T02:37:32;8.70;99.90
22813;DHT22;11573;51.334;3.244;2023-04-19T02:39:59;8.70;99.90
22813;DHT22;11573;51.334;3.244;2023-04-19T02:42:28;8.60;99.90
22813;DHT22;11573;51.334;3.244;2023-04-19T02:44:55;8.60;99.90
22813;DHT22;11573;51.334;3.244;2023-04-19T02:47:23;8.60;99.90
22813;DHT22;11573;51.334;3.244;2023-04-19T02:49:50;8.60;99.90
22813;DHT22;11573;51.334;3.244;2023-04-19T02:52:18;8.60;99.90
22813;DHT22;11573;51.334;3.244;2023-04-19T02:54:45;8.60;99.90
22813;DHT22;11573;51.334;3.244;2023-04-19T02:57:12;8.60;99.90
22813;DHT22;11573;51.334;3.244;2023-04-19T02:59:41;8.60;99.90
22813;DHT22;11573;51.334;3.244;2023-04-19T03:02:08;8.60;99.90
22813;DHT22;11573;51.334;3.244;2023-04-19T03:04:36;8.50;99.90
22813;DHT22;11573;51.334;3.244;2023-04-19T03:07:03;8.50;99.90
22813;DHT22;11573;51.334;3.244;2023-04-19T03:09:30;8.50;99.90
22813;DHT22;11573;51.334;3.244;2023-04-19T03:11:57;8.60;99.90
22813;DHT22;11573;51.334;3.244;2023-04-19T03:14:24;8.50;99.90
22813;DHT22;11573;51.334;3.244;2023-04-19T03:16:51;8.50;99.90
22813;DHT22;11573;51.334;3.244;2023-04-19T03:19:18;8.50;99.90
22813;DHT22;11573;51.334;3.244;2023-04-19T03:21:49;8.50;99.90
22813;DHT22;11573;51.334;3.244;2023-04-19T03:24:18;8.50;99.90
22813;DHT22;11573;51.334;3.244;2023-04-19T03:26:49;8.60;99.90
22813;DHT22;11573;51.334;3.244;2023-04-19T03:29:22;8.60;99.90
22813;DHT22;11573;51.334;3.244;2023-04-19T03:32:08;8.60;99.90
22813;DHT22;11573;51.334;3.244;2023-04-19T03:34:38;8.60;99.90
22813;DHT22;11573;51.334;3.244;2023-04-19T03:37:04;8.60;99.90
22813;DHT22;11573;51.334;3.244;2023-04-19T03:39:31;8.60;99.90
22813;DHT22;11573;51.334;3.244;2023-04-19T03:42:02;8.60;99.90
22813;DHT22;11573;51.334;3.244;2023-04-19T03:44:43;8.60;99.90
22813;DHT22;11573;51.334;3.244;2023-04-19T03:47:10;8.60;99.90
22813;DHT22;11573;51.334;3.244;2023-04-19T03:49:42;8.60;99.90
22813;DHT22;11573;51.334;3.244;2023-04-19T03:52:09;8.60;99.90
22813;DHT22;11573;51.334;3.244;2023-04-19T03:54:36;8.60;99.90
22813;DHT22;11573;51.334;3.244;2023-04-19T03:57:07;8.60;99.90
22813;DHT22;11573;51.334;3.244;2023-04-19T03:59:38;8.60;99.90
22813;DHT22;11573;51.334;3.244;2023-04-19T04:02:05;8.50;99.90
22813;DHT22;11573;51.334;3.244;2023-04-19T04:04:32;8.50;99.90
22813;DHT22;11573;51.334;3.244;2023-04-19T04:07:00;8.50;99.90
22813;DHT22;11573;51.334;3.244;2023-04-19T04:09:28;8.50;99.90
22813;DHT22;11573;51.334;3.244;2023-04-19T04:11:55;8.50;99.90
22813;DHT22;11573;51.334;3.244;2023-04-19T04:14:23;8.50;99.90
22813;DHT22;11573;51.334;3.244;2023-04-19T04:16:50;8.50;99.90
22813;DHT22;11573;51.334;3.244;2023-04-19T04:19:17;8.50;99.90
22813;DHT22;11573;51.334;3.244;2023-04-19T04:21:45;8.50;99.90
22813;DHT22;11573;51.334;3.244;2023-04-19T04:24:12;8.50;99.90
22813;DHT22;11573;51.334;3.244;2023-04-19T04:26:49;8.50;99.90
22813;DHT22;11573;51.334;3.244;2023-04-19T04:29:28;8.50;99.90
22813;DHT22;11573;51.334;3.244;2023-04-19T04:31:58;8.50;99.90
22813;DHT22;11573;51.334;3.244;2023-04-19T04:34:32;8.50;99.90
22813;DHT22;11573;51.334;3.244;2023-04-19T04:37:05;8.40;99.90
22813;DHT22;11573;51.334;3.244;2023-04-19T04:39:36;8.40;99.90
22813;DHT22;11573;51.334;3.244;2023-04-19T04:42:07;8.40;99.90
22813;DHT22;11573;51.334;3.244;2023-04-19T04:44:35;8.50;99.90
22813;DHT22;11573;51.334;3.244;2023-04-19T04:47:02;8.50;99.90
22813;DHT22;11573;51.334;3.244;2023-04-19T04:49:35;8.60;99.90
22813;DHT22;11573;51.334;3.244;2023-04-19T04:52:03;8.70;99.90
22813;DHT22;11573;51.334;3.244;2023-04-19T04:54:35;8.80;99.90
22813;DHT22;11573;51.334;3.244;2023-04-19T04:57:03;8.90;99.90
22813;DHT22;11573;51.334;3.244;2023-04-19T04:59:30;9.10;99.90
22813;DHT22;11573;51.334;3.244;2023-04-19T05:01:57;9.20;99.90
22813;DHT22;11573;51.334;3.244;2023-04-19T05:04:24;9.30;99.90
22813;DHT22;11573;51.334;3.244;2023-04-19T05:06:51;9.40;99.90
22813;DHT22;11573;51.334;3.244;2023-04-19T05:09:23;9.40;99.90
22813;DHT22;11573;51.334;3.244;2023-04-19T05:11:50;9.50;99.90
22813;DHT22;11573;51.334;3.244;2023-04-19T05:14:17;9.60;99.90
22813;DHT22;11573;51.334;3.244;2023-04-19T05:16:44;9.60;99.90
22813;DHT22;11573;51.334;3.244;2023-04-19T05:19:12;9.70;99.90
22813;DHT22;11573;51.334;3.244;2023-04-19T05:21:45;9.80;99.90
22813;DHT22;11573;51.334;3.244;2023-04-19T05:24:13;9.80;99.90
22813;DHT22;11573;51.334;3.244;2023-04-19T05:26:41;9.80;99.90
22813;DHT22;11573;51.334;3.244;2023-04-19T05:29:09;9.90;99.90
22813;DHT22;11573;51.334;3.244;2023-04-19T05:31:45;9.90;99.90
22813;DHT22;11573;51.334;3.244;2023-04-19T05:34:19;9.90;99.90
22813;DHT22;11573;51.334;3.244;2023-04-19T05:36:48;10.00;99.90
22813;DHT22;11573;51.334;3.244;2023-04-19T05:39:15;10.10;99.90
22813;DHT22;11573;51.334;3.244;2023-04-19T05:41:43;10.10;99.90
22813;DHT22;11573;51.334;3.244;2023-04-19T05:44:10;10.20;99.90
22813;DHT22;11573;51.334;3.244;2023-04-19T05:46:37;10.20;99.90
22813;DHT22;11573;51.334;3.244;2023-04-19T05:49:07;10.30;99.90
22813;DHT22;11573;51.334;3.244;2023-04-19T05:51:52;10.40;99.90
22813;DHT22;11573;51.334;3.244;2023-04-19T05:54:35;10.50;99.90
22813;DHT22;11573;51.334;3.244;2023-04-19T05:57:03;10.50;99.90
22813;DHT22;11573;51.334;3.244;2023-04-19T05:59:30;10.50;99.90
22813;DHT22;11573;51.334;3.244;2023-04-19T06:02:14;10.60;99.90
22813;DHT22;11573;51.334;3.244;2023-04-19T06:04:41;10.70;99.90
22813;DHT22;11573;51.334;3.244;2023-04-19T06:07:09;10.70;99.90
22813;DHT22;11573;51.334;3.244;2023-04-19T06:09:57;10.80;99.90
22813;DHT22;11573;51.334;3.244;2023-04-19T06:12:24;10.80;99.90
22813;DHT22;11573;51.334;3.244;2023-04-19T06:14:52;10.80;99.90
22813;DHT22;11573;51.334;3.244;2023-04-19T06:17:19;10.90;99.90
22813;DHT22;11573;51.334;3.244;2023-04-19T06:19:51;11.00;99.90
22813;DHT22;11573;51.334;3.244;2023-04-19T06:22:18;11.00;99.90
22813;DHT22;11573;51.334;3.244;2023-04-19T06:24:45;11.10;99.90
22813;DHT22;11573;51.334;3.244;2023-04-19T06:27:14;11.20;99.90
22813;DHT22;11573;51.334;3.244;2023-04-19T06:29:41;11.30;99.90
22813;DHT22;11573;51.334;3.244;2023-04-19T06:32:08;11.50;99.90
22813;DHT22;11573;51.334;3.244;2023-04-19T06:34:35;11.60;99.90
22813;DHT22;11573;51.334;3.244;2023-04-19T06:37:02;11.60;99.90
22813;DHT22;11573;51.334;3.244;2023-04-19T06:39:30;11.70;99.90
22813;DHT22;11573;51.334;3.244;2023-04-19T06:41:56;11.70;99.90
22813;DHT22;11573;51.334;3.244;2023-04-19T06:44:23;11.80;99.90
22813;DHT22;11573;51.334;3.244;2023-04-19T06:46:50;11.90;99.90
22813;DHT22;11573;51.334;3.244;2023-04-19T06:49:17;12.10;99.90
22813;DHT22;11573;51.334;3.244;2023-04-19T06:51:44;12.30;99.90
22813;DHT22;11573;51.334;3.244;2023-04-19T06:54:11;12.30;99.90
22813;DHT22;11573;51.334;3.244;2023-04-19T06:56:48;12.20;99.90
22813;DHT22;11573;51.334;3.244;2023-04-19T06:59:18;12.20;99.90
22813;DHT22;11573;51.334;3.244;2023-04-19T07:01:46;12.20;99.90
22813;DHT22;11573;51.334;3.244;2023-04-19T07:04:14;12.30;99.90
22813;DHT22;11573;51.334;3.244;2023-04-19T07:06:42;12.30;99.90
22813;DHT22;11573;51.334;3.244;2023-04-19T07:09:08;12.30;99.90
22813;DHT22;11573;51.334;3.244;2023-04-19T07:11:36;12.20;99.90
22813;DHT22;11573;51.334;3.244;2023-04-19T07:14:03;12.20;99.90
22813;DHT22;11573;51.334;3.244;2023-04-19T07:16:30;12.30;99.90
22813;DHT22;11573;51.334;3.244;2023-04-19T07:18:57;12.40;99.90
22813;DHT22;11573;51.334;3.244;2023-04-19T07:21:24;12.50;99.90
22813;DHT22;11573;51.334;3.244;2023-04-19T07:23:54;12.60;99.90
22813;DHT22;11573;51.334;3.244;2023-04-19T07:26:21;12.70;99.90
22813;DHT22;11573;51.334;3.244;2023-04-19T07:28:48;12.80;99.90
22813;DHT22;11573;51.334;3.244;2023-04-19T07:31:17;12.60;99.90
22813;DHT22;11573;51.334;3.244;2023-04-19T07:33:44;12.40;99.90
22813;DHT22;11573;51.334;3.244;2023-04-19T07:36:11;12.40;99.90
22813;DHT22;11573;51.334;3.244;2023-04-19T07:38:38;12.60;99.90
22813;DHT22;11573;51.334;3.244;2023-04-19T07:41:05;12.60;99.90
22813;DHT22;11573;51.334;3.244;2023-04-19T07:43:32;12.50;99.90
22813;DHT22;11573;51.334;3.244;2023-04-19T07:45:59;12.40;99.90
22813;DHT22;11573;51.334;3.244;2023-04-19T07:48:27;12.40;99.90
22813;DHT22;11573;51.334;3.244;2023-04-19T07:50:53;12.60;99.90
22813;DHT22;11573;51.334;3.244;2023-04-19T07:53:21;12.80;99.90
22813;DHT22;11573;51.334;3.244;2023-04-19T07:55:47;13.00;99.90
22813;DHT22;11573;51.334;3.244;2023-04-19T07:58:14;13.10;99.90
22813;DHT22;11573;51.334;3.244;2023-04-19T08:00:41;13.10;99.90
22813;DHT22;11573;51.334;3.244;2023-04-19T08:03:08;13.10;99.90
22813;DHT22;11573;51.334;3.244;2023-04-19T08:05:35;12.90;99.90
22813;DHT22;11573;51.334;3.244;2023-04-19T08:08:03;12.80;99.90
22813;DHT22;11573;51.334;3.244;2023-04-19T08:10:30;13.00;99.90
22813;DHT22;11573;51.334;3.244;2023-04-19T08:12:57;13.10;99.90
22813;DHT22;11573;51.334;3.244;2023-04-19T08:15:33;13.10;99.90
22813;DHT22;11573;51.334;3.244;2023-04-19T08:18:03;13.20;99.90
22813;DHT22;11573;51.334;3.244;2023-04-19T08:20:31;13.20;99.90
22813;DHT22;11573;51.334;3.244;2023-04-19T08:22:59;13.10;99.90
22813;DHT22;11573;51.334;3.244;2023-04-19T08:25:40;13.00;99.90
22813;DHT22;11573;51.334;3.244;2023-04-19T08:28:07;12.90;99.90
22813;DHT22;11573;51.334;3.244;2023-04-19T08:30:34;13.00;99.90
22813;DHT22;11573;51.334;3.244;2023-04-19T08:33:01;13.20;99.90
22813;DHT22;11573;51.334;3.244;2023-04-19T08:35:28;13.20;99.90
22813;DHT22;11573;51.334;3.244;2023-04-19T08:37:55;13.20;99.90
22813;DHT22;11573;51.334;3.244;2023-04-19T08:40:23;13.20;99.90
22813;DHT22;11573;51.334;3.244;2023-04-19T08:42:50;13.20;99.90
22813;DHT22;11573;51.334;3.244;2023-04-19T08:45:18;13.10;99.90
22813;DHT22;11573;51.334;3.244;2023-04-19T08:47:50;13.10;99.90
22813;DHT22;11573;51.334;3.244;2023-04-19T08:50:28;13.20;99.90
22813;DHT22;11573;51.334;3.244;2023-04-19T08:52:58;13.30;99.90
22813;DHT22;11573;51.334;3.244;2023-04-19T08:55:47;13.40;99.90
22813;DHT22;11573;51.334;3.244;2023-04-19T08:58:18;13.50;99.90
22813;DHT22;11573;51.334;3.244;2023-04-19T09:00:58;13.70;99.90
22813;DHT22;11573;51.334;3.244;2023-04-19T09:03:26;13.70;99.90
22813;DHT22;11573;51.334;3.244;2023-04-19T09:05:53;13.80;99.90
22813;DHT22;11573;51.334;3.244;2023-04-19T09:08:26;13.80;99.90
22813;DHT22;11573;51.334;3.244;2023-04-19T09:11:00;13.80;99.90
22813;DHT22;11573;51.334;3.244;2023-04-19T09:13:28;13.90;99.90
22813;DHT22;11573;51.334;3.244;2023-04-19T09:15:56;14.00;99.90
22813;DHT22;11573;51.334;3.244;2023-04-19T09:18:23;14.10;99.90
22813;DHT22;11573;51.334;3.244;2023-04-19T09:20:51;14.10;99.90
22813;DHT22;11573;51.334;3.244;2023-04-19T09:23:27;14.10;99.90
22813;DHT22;11573;51.334;3.244;2023-04-19T09:28:56;14.40;99.90
22813;DHT22;11573;51.334;3.244;2023-04-19T09:31:24;14.40;99.90
22813;DHT22;11573;51.334;3.244;2023-04-19T09:34:14;14.20;99.90
22813;DHT22;11573;51.334;3.244;2023-04-19T09:36:41;14.10;99.90
22813;DHT22;11573;51.334;3.244;2023-04-19T09:39:09;13.90;99.90
22813;DHT22;11573;51.334;3.244;2023-04-19T09:41:52;14.00;99.90
22813;DHT22;11573;51.334;3.244;2023-04-19T09:44:20;13.90;99.90
22813;DHT22;11573;51.334;3.244;2023-04-19T09:47:24;14.00;99.90
22813;DHT22;11573;51.334;3.244;2023-04-19T09:50:08;14.00;99.90
22813;DHT22;11573;51.334;3.244;2023-04-19T09:52:49;14.00;99.90
22813;DHT22;11573;51.334;3.244;2023-04-19T09:55:17;14.00;99.90
22813;DHT22;11573;51.334;3.244;2023-04-19T09:57:48;14.00;99.90
22813;DHT22;11573;51.334;3.244;2023-04-19T10:00:15;14.20;99.90
22813;DHT22;11573;51.334;3.244;2023-04-19T10:02:43;14.30;99.90
22813;DHT22;11573;51.334;3.244;2023-04-19T10:05:11;14.30;99.90
22813;DHT22;11573;51.334;3.244;2023-04-19T10:07:48;14.20;99.90
22813;DHT22;11573;51.334;3.244;2023-04-19T10:10:18;14.00;99.90
22813;DHT22;11573;51.334;3.244;2023-04-19T10:12:52;13.90;99.90
22813;DHT22;11573;51.334;3.244;2023-04-19T10:15:23;14.10;99.90
22813;DHT22;11573;51.334;3.244;2023-04-19T10:17:55;14.10;99.90
22813;DHT22;11573;51.334;3.244;2023-04-19T10:20:26;13.90;99.90
22813;DHT22;11573;51.334;3.244;2023-04-19T10:22:56;13.90;99.90
22813;DHT22;11573;51.334;3.244;2023-04-19T10:25:29;13.80;99.90
22813;DHT22;11573;51.334;3.244;2023-04-19T10:27:56;13.80;99.90
22813;DHT22;11573;51.334;3.244;2023-04-19T10:30:24;13.90;99.90
22813;DHT22;11573;51.334;3.244;2023-04-19T10:32:56;14.00;99.90
22813;DHT22;11573;51.334;3.244;2023-04-19T10:35:24;13.90;99.90
22813;DHT22;11573;51.334;3.244;2023-04-19T10:40:53;14.00;99.90
22813;DHT22;11573;51.334;3.244;2023-04-19T10:43:23;13.90;99.90
22813;DHT22;11573;51.334;3.244;2023-04-19T10:45:50;13.90;99.90
22813;DHT22;11573;51.334;3.244;2023-04-19T10:53:46;13.90;99.90
22813;DHT22;11573;51.334;3.244;2023-04-19T10:56:15;14.10;99.90
22813;DHT22;11573;51.334;3.244;2023-04-19T11:01:38;14.20;99.90
22813;DHT22;11573;51.334;3.244;2023-04-19T11:07:24;14.20;99.90
22813;DHT22;11573;51.334;3.244;2023-04-19T11:09:34;14.50;99.90
22813;DHT22;11573;51.334;3.244;2023-04-19T11:12:03;14.50;99.90
22813;DHT22;11573;51.334;3.244;2023-04-19T11:14:33;14.60;99.90
22813;DHT22;11573;51.334;3.244;2023-04-19T11:17:03;14.80;99.90
22813;DHT22;11573;51.334;3.244;2023-04-19T11:19:54;14.90;99.90
22813;DHT22;11573;51.334;3.244;2023-04-19T11:22:41;15.00;99.90
22813;DHT22;11573;51.334;3.244;2023-04-19T11:27:37;14.70;99.90
22813;DHT22;11573;51.334;3.244;2023-04-19T11:30:07;14.80;99.90
22813;DHT22;11573;51.334;3.244;2023-04-19T11:32:35;15.00;99.90
22813;DHT22;11573;51.334;3.244;2023-04-19T11:35:07;15.10;99.90
22813;DHT22;11573;51.334;3.244;2023-04-19T11:37:35;15.10;99.90
22813;DHT22;11573;51.334;3.244;2023-04-19T11:40:04;15.10;99.90
22813;DHT22;11573;51.334;3.244;2023-04-19T11:42:32;15.20;99.90
22813;DHT22;11573;51.334;3.244;2023-04-19T11:44:59;15.30;99.90
22813;DHT22;11573;51.334;3.244;2023-04-19T11:47:26;15.40;99.90
22813;DHT22;11573;51.334;3.244;2023-04-19T11:49:54;15.50;99.90
22813;DHT22;11573;51.334;3.244;2023-04-19T11:52:24;15.30;99.90
22813;DHT22;11573;51.334;3.244;2023-04-19T11:54:52;15.20;99.90
22813;DHT22;11573;51.334;3.244;2023-04-19T11:57:31;15.30;99.90
22813;DHT22;11573;51.334;3.244;2023-04-19T12:00:06;15.40;99.90
22813;DHT22;11573;51.334;3.244;2023-04-19T12:02:42;15.40;99.90
22813;DHT22;11573;51.334;3.244;2023-04-19T12:05:14;15.40;99.90
22813;DHT22;11573;51.334;3.244;2023-04-19T12:08:04;15.50;99.90
22813;DHT22;11573;51.334;3.244;2023-04-19T12:10:34;15.60;99.90
22813;DHT22;11573;51.334;3.244;2023-04-19T12:13:16;15.60;99.90
22813;DHT22;11573;51.334;3.244;2023-04-19T12:15:45;15.50;99.90
22813;DHT22;11573;51.334;3.244;2023-04-19T12:18:12;15.50;99.90
22813;DHT22;11573;51.334;3.244;2023-04-19T12:20:44;15.70;99.90
22813;DHT22;11573;51.334;3.244;2023-04-19T12:23:13;15.70;99.90
22813;DHT22;11573;51.334;3.244;2023-04-19T12:25:43;15.60;99.90
22813;DHT22;11573;51.334;3.244;2023-04-19T12:28:11;15.50;99.90
22813;DHT22;11573;51.334;3.244;2023-04-19T12:30:39;15.60;99.90
22813;DHT22;11573;51.334;3.244;2023-04-19T12:33:06;15.50;99.90
22813;DHT22;11573;51.334;3.244;2023-04-19T12:35:34;15.50;99.90
22813;DHT22;11573;51.334;3.244;2023-04-19T12:38:01;15.50;99.90
22813;DHT22;11573;51.334;3.244;2023-04-19T12:40:29;15.70;99.90
22813;DHT22;11573;51.334;3.244;2023-04-19T12:42:56;15.80;99.90
22813;DHT22;11573;51.334;3.244;2023-04-19T12:45:24;15.70;99.90
22813;DHT22;11573;51.334;3.244;2023-04-19T12:47:51;15.60;99.90
22813;DHT22;11573;51.334;3.244;2023-04-19T12:50:18;15.60;99.90
22813;DHT22;11573;51.334;3.244;2023-04-19T12:52:45;15.70;99.90
22813;DHT22;11573;51.334;3.244;2023-04-19T12:55:11;15.50;99.90
22813;DHT22;11573;51.334;3.244;2023-04-19T12:57:38;15.50;99.90
22813;DHT22;11573;51.334;3.244;2023-04-19T13:00:06;15.60;99.90
22813;DHT22;11573;51.334;3.244;2023-04-19T13:02:33;15.60;99.90
22813;DHT22;11573;51.334;3.244;2023-04-19T13:05:01;15.50;99.90
22813;DHT22;11573;51.334;3.244;2023-04-19T13:07:29;15.50;99.90
22813;DHT22;11573;51.334;3.244;2023-04-19T13:09:57;15.50;99.90
22813;DHT22;11573;51.334;3.244;2023-04-19T13:12:24;15.60;99.90
22813;DHT22;11573;51.334;3.244;2023-04-19T13:14:51;15.70;99.90
22813;DHT22;11573;51.334;3.244;2023-04-19T13:17:19;15.80;99.90
22813;DHT22;11573;51.334;3.244;2023-04-19T13:19:46;15.90;99.90
22813;DHT22;11573;51.334;3.244;2023-04-19T13:22:13;15.70;99.90
22813;DHT22;11573;51.334;3.244;2023-04-19T13:24:41;15.80;99.90
22813;DHT22;11573;51.334;3.244;2023-04-19T13:27:08;15.80;99.90
22813;DHT22;11573;51.334;3.244;2023-04-19T13:29:35;16.00;99.90
22813;DHT22;11573;51.334;3.244;2023-04-19T13:32:02;15.80;99.90
22813;DHT22;11573;51.334;3.244;2023-04-19T13:34:33;15.90;99.90
22813;DHT22;11573;51.334;3.244;2023-04-19T13:37:01;15.70;99.90
22813;DHT22;11573;51.334;3.244;2023-04-19T13:39:28;15.70;99.90
22813;DHT22;11573;51.334;3.244;2023-04-19T13:41:54;15.60;99.90
22813;DHT22;11573;51.334;3.244;2023-04-19T13:44:22;15.50;99.90
22813;DHT22;11573;51.334;3.244;2023-04-19T13:46:50;15.50;99.90
22813;DHT22;11573;51.334;3.244;2023-04-19T13:49:18;15.60;99.90
22813;DHT22;11573;51.334;3.244;2023-04-19T13:51:45;15.60;99.90
22813;DHT22;11573;51.334;3.244;2023-04-19T13:54:17;15.50;99.90
22813;DHT22;11573;51.334;3.244;2023-04-19T13:56:46;15.50;99.90
22813;DHT22;11573;51.334;3.244;2023-04-19T13:59:17;15.30;99.90
22813;DHT22;11573;51.334;3.244;2023-04-19T14:01:44;15.30;99.90
22813;DHT22;11573;51.334;3.244;2023-04-19T14:04:10;15.40;99.90
22813;DHT22;11573;51.334;3.244;2023-04-19T14:06:38;15.40;99.90
22813;DHT22;11573;51.334;3.244;2023-04-19T14:09:05;15.70;99.90
22813;DHT22;11573;51.334;3.244;2023-04-19T14:11:32;15.80;99.90
22813;DHT22;11573;51.334;3.244;2023-04-19T14:13:59;15.80;99.90
22813;DHT22;11573;51.334;3.244;2023-04-19T14:16:26;15.80;99.90
22813;DHT22;11573;51.334;3.244;2023-04-19T14:18:53;15.70;99.90
22813;DHT22;11573;51.334;3.244;2023-04-19T14:21:20;15.70;99.90
22813;DHT22;11573;51.334;3.244;2023-04-19T14:23:47;15.70;99.90
22813;DHT22;11573;51.334;3.244;2023-04-19T14:26:14;15.60;99.90
22813;DHT22;11573;51.334;3.244;2023-04-19T14:28:41;15.70;99.90
22813;DHT22;11573;51.334;3.244;2023-04-19T14:31:08;15.60;99.90
22813;DHT22;11573;51.334;3.244;2023-04-19T14:33:35;15.70;99.90
22813;DHT22;11573;51.334;3.244;2023-04-19T14:36:03;15.60;99.90
22813;DHT22;11573;51.334;3.244;2023-04-19T14:38:30;15.30;99.90
22813;DHT22;11573;51.334;3.244;2023-04-19T14:40:57;15.30;99.90
22813;DHT22;11573;51.334;3.244;2023-04-19T14:43:24;15.50;99.90
22813;DHT22;11573;51.334;3.244;2023-04-19T14:45:51;15.50;99.90
22813;DHT22;11573;51.334;3.244;2023-04-19T14:48:18;15.40;99.90
22813;DHT22;11573;51.334;3.244;2023-04-19T14:50:48;15.60;99.90
22813;DHT22;11573;51.334;3.244;2023-04-19T14:53:15;15.60;99.90
22813;DHT22;11573;51.334;3.244;2023-04-19T14:55:42;15.80;99.90
22813;DHT22;11573;51.334;3.244;2023-04-19T14:58:09;15.90;99.90
22813;DHT22;11573;51.334;3.244;2023-04-19T15:00:36;15.80;99.90
22813;DHT22;11573;51.334;3.244;2023-04-19T15:03:03;15.70;99.90
22813;DHT22;11573;51.334;3.244;2023-04-19T15:05:33;15.80;99.90
22813;DHT22;11573;51.334;3.244;2023-04-19T15:08:00;15.60;99.90
22813;DHT22;11573;51.334;3.244;2023-04-19T15:10:27;15.70;99.90
22813;DHT22;11573;51.334;3.244;2023-04-19T15:12:54;15.80;99.90
22813;DHT22;11573;51.334;3.244;2023-04-19T15:15:21;15.80;99.90
22813;DHT22;11573;51.334;3.244;2023-04-19T15:17:48;15.80;99.90
22813;DHT22;11573;51.334;3.244;2023-04-19T15:20:15;15.80;99.90
22813;DHT22;11573;51.334;3.244;2023-04-19T15:22:42;15.80;99.90
22813;DHT22;11573;51.334;3.244;2023-04-19T15:25:09;15.80;99.50
22813;DHT22;11573;51.334;3.244;2023-04-19T15:27:36;15.70;98.20
22813;DHT22;11573;51.334;3.244;2023-04-19T15:30:04;15.80;98.70
22813;DHT22;11573;51.334;3.244;2023-04-19T15:32:31;15.80;98.70
22813;DHT22;11573;51.334;3.244;2023-04-19T15:35:02;15.70;98.80
22813;DHT22;11573;51.334;3.244;2023-04-19T15:37:30;15.70;98.40
22813;DHT22;11573;51.334;3.244;2023-04-19T15:39:57;15.70;98.90
22813;DHT22;11573;51.334;3.244;2023-04-19T15:42:24;15.80;99.70
22813;DHT22;11573;51.334;3.244;2023-04-19T15:44:51;15.90;99.90
22813;DHT22;11573;51.334;3.244;2023-04-19T15:47:18;15.80;99.90
22813;DHT22;11573;51.334;3.244;2023-04-19T15:49:45;15.70;99.90
22813;DHT22;11573;51.334;3.244;2023-04-19T15:52:13;15.60;99.00
22813;DHT22;11573;51.334;3.244;2023-04-19T15:54:40;15.60;99.50
22813;DHT22;11573;51.334;3.244;2023-04-19T15:57:07;15.70;99.40
22813;DHT22;11573;51.334;3.244;2023-04-19T15:59:34;15.70;98.10
22813;DHT22;11573;51.334;3.244;2023-04-19T16:02:01;15.80;97.70
22813;DHT22;11573;51.334;3.244;2023-04-19T16:04:28;15.90;99.90